KFSE

Fosston Municipal Airport

Fosston, Minnesota, USA
METAR KFSE 191950Z AUTO 32018G29KT 10SM SCT045 12/01 A2988 RMK AO2
Observed Flight Rules
Oct-19 @ 19:50 UTC (13 minutes ago) Visual Flight Rules
Wind Visibility Clouds
320° at 18 knots
 Gusting to 29 knots
10 miles
  • Scattered at 4,500' AGL
Temperatures Readings
Current 12°C / 54°F
Dewpoint 1°C / 34°F
Humidity 47%
Altimeter 29.88" Hg
Pressure 1012 hPa
Elevation 389
METAR KFSE 191950Z AUTO 32018G29KT 10SM SCT045 12/01 A2988 RMK AO2
Observed Flight Rules
Oct-19 @ 19:50 UTC
(13 minutes ago)
VFR
Wind Visibility
320° at 18 knots
 Gusting to 29 knots
10 miles
Clouds
  • Scattered at 4,500' AGL
Temperature Dewpoint
12°C / 54°F 1°C / 34°F
Humidity Altimeter Pressure
47% 29.88" Hg 1012 hPa